createdAt,value
2022-12-15T00:00:52.014Z,96828.72
2022-12-15T00:03:12.663Z,96821.09
2022-12-15T00:05:33.461Z,96818.44
2022-12-15T00:07:54.188Z,96823.56
2022-12-15T00:10:16.006Z,96830.47
2022-12-15T00:12:36.928Z,96837.19
2022-12-15T00:14:57.565Z,96841.41
2022-12-15T00:17:18.345Z,96847.38
2022-12-15T00:19:38.741Z,96846.44
2022-12-15T00:21:59.548Z,96847.47
2022-12-15T00:24:20.090Z,96858.72
2022-12-15T00:26:42.121Z,96857.06
2022-12-15T00:29:02.924Z,96861.13
2022-12-15T00:31:23.874Z,96859.28
2022-12-15T00:33:44.581Z,96860.97
2022-12-15T00:36:17.415Z,96859.22
2022-12-15T00:38:37.981Z,96867.84
2022-12-15T00:40:41.000Z,96868.75
2022-12-15T00:42:45.286Z,96868.75
2022-12-15T00:44:52.804Z,96882.41
2022-12-15T00:46:54.906Z,96875.41
2022-12-15T00:48:58.381Z,96875.31
2022-12-15T00:51:00.306Z,96874.47
2022-12-15T00:53:20.596Z,96870.09
2022-12-15T00:55:43.915Z,96866.75
2022-12-15T00:58:07.902Z,96864.94
2022-12-15T01:00:29.644Z,96872.81
2022-12-15T01:02:50.721Z,96892.03
2022-12-15T01:05:11.471Z,96902.47
2022-12-15T01:07:31.843Z,96901.56
2022-12-15T01:09:52.526Z,96897.31
2022-12-15T01:12:13.429Z,96905.13
2022-12-15T01:14:35.345Z,96902.47
2022-12-15T01:16:56.041Z,96899.00
2022-12-15T01:19:16.748Z,96910.97
2022-12-15T01:21:24.081Z,96916.19
2022-12-15T01:23:28.576Z,96926.31
2022-12-15T01:25:31.847Z,96928.81
2022-12-15T01:27:35.030Z,96923.66
2022-12-15T01:29:39.462Z,96924.53
2022-12-15T01:31:43.999Z,96934.78
2022-12-15T01:33:47.314Z,96935.78
2022-12-15T01:35:57.147Z,96928.00
2022-12-15T01:38:00.168Z,96926.31
2022-12-15T01:40:20.847Z,96934.94
2022-12-15T01:42:24.255Z,96929.97
2022-12-15T01:44:27.247Z,96940.41
2022-12-15T01:46:33.245Z,96937.03
2022-12-15T01:48:40.341Z,96944.81
2022-12-15T01:50:48.323Z,96954.06
2022-12-15T01:52:51.656Z,96943.88
2022-12-15T01:54:56.672Z,96944.53
2022-12-15T01:57:03.554Z,96940.16
2022-12-15T01:59:09.290Z,96941.00
2022-12-15T02:01:12.604Z,96936.75
2022-12-15T02:03:17.284Z,96939.16
2022-12-15T02:05:21.828Z,96939.16
2022-12-15T02:07:39.123Z,96942.59
2022-12-15T02:09:43.259Z,96938.34
2022-12-15T02:11:58.184Z,96942.66
2022-12-15T02:14:03.433Z,96946.72
2022-12-15T02:16:14.869Z,96935.53
2022-12-15T02:18:23.725Z,96936.75
2022-12-15T02:20:42.831Z,96939.41
2022-12-15T02:23:03.529Z,96944.47
2022-12-15T02:25:31.520Z,96945.22
2022-12-15T02:27:46.382Z,96947.03
2022-12-15T02:30:26.575Z,96947.78
2022-12-15T02:32:32.998Z,96945.38
2022-12-15T02:34:41.254Z,96954.72
2022-12-15T02:36:46.437Z,96960.72
2022-12-15T02:38:49.667Z,96963.38
2022-12-15T02:40:59.159Z,96954.72
2022-12-15T02:43:05.761Z,96948.69
2022-12-15T02:45:11.102Z,96949.44
2022-12-15T02:47:28.578Z,96942.59
2022-12-15T02:49:40.652Z,96935.94
2022-12-15T02:51:50.959Z,96941.00
2022-12-15T02:54:14.041Z,96959.72
2022-12-15T02:56:22.837Z,96962.97
2022-12-15T02:58:29.358Z,96972.41
2022-12-15T03:00:37.124Z,96963.78
2022-12-15T03:02:43.496Z,96956.16
2022-12-15T03:04:48.114Z,96953.69
2022-12-15T03:07:00.787Z,96956.97
2022-12-15T03:09:05.115Z,96958.72
2022-12-15T03:11:08.425Z,96957.84
2022-12-15T03:13:11.520Z,96961.31
2022-12-15T03:15:15.086Z,96969.75
2022-12-15T03:17:18.164Z,96981.69
2022-12-15T03:19:21.345Z,96970.59
2022-12-15T03:21:25.765Z,96984.25
2022-12-15T03:23:29.490Z,96973.09
2022-12-15T03:25:32.928Z,96980.63
2022-12-15T03:27:37.838Z,96978.06
2022-12-15T03:29:41.080Z,96973.91
2022-12-15T03:31:44.352Z,96979.13
2022-12-15T03:33:47.578Z,96974.97
2022-12-15T03:35:51.214Z,96966.28
2022-12-15T03:37:55.668Z,96975.59
2022-12-15T03:39:58.716Z,96984.19
2022-12-15T03:42:02.495Z,96994.47
2022-12-15T03:44:05.960Z,96996.88
2022-12-15T03:46:09.894Z,97001.19
2022-12-15T03:48:13.080Z,96992.78
2022-12-15T03:50:18.601Z,97007.22
2022-12-15T03:52:22.141Z,96999.59
2022-12-15T03:54:26.597Z,96999.59
2022-12-15T03:56:29.642Z,96999.59
2022-12-15T03:58:32.722Z,97002.09
2022-12-15T04:00:35.762Z,97002.16
2022-12-15T04:02:38.916Z,97002.31
2022-12-15T04:04:42.078Z,97012.31
2022-12-15T04:06:45.348Z,97013.81
2022-12-15T04:08:49.779Z,97012.91
2022-12-15T04:10:55.024Z,97009.28
2022-12-15T04:12:59.520Z,97017.88
2022-12-15T04:15:02.576Z,97022.44
2022-12-15T04:17:05.974Z,97034.13
2022-12-15T04:19:26.832Z,97029.22
2022-12-15T04:21:29.974Z,97035.94
2022-12-15T04:23:33.331Z,97041.00
2022-12-15T04:25:55.498Z,97039.19
2022-12-15T04:28:17.515Z,97033.97
2022-12-15T04:30:38.197Z,97033.16
2022-12-15T04:32:58.993Z,97030.88
2022-12-15T04:35:19.867Z,97050.47
2022-12-15T04:37:40.958Z,97056.34
2022-12-15T04:40:03.745Z,97041.91
2022-12-15T04:42:24.942Z,97040.34
2022-12-15T04:44:49.999Z,97035.28
2022-12-15T04:47:11.054Z,97030.44
2022-12-15T04:49:31.758Z,97030.53
2022-12-15T04:51:52.479Z,97023.88
2022-12-15T04:54:13.453Z,97021.38
2022-12-15T04:56:34.824Z,97024.03
2022-12-15T04:58:55.220Z,97017.47
2022-12-15T05:01:16.955Z,97015.66
2022-12-15T05:03:38.074Z,97022.63
2022-12-15T05:05:58.804Z,97019.34
2022-12-15T05:08:19.290Z,97018.38
2022-12-15T05:10:40.258Z,97029.31
2022-12-15T05:13:00.913Z,97028.34
2022-12-15T05:15:21.549Z,97025.69
2022-12-15T05:17:43.792Z,97037.50
2022-12-15T05:20:04.288Z,97031.50
2022-12-15T05:22:25.183Z,97034.84
2022-12-15T05:24:45.812Z,97031.50
2022-12-15T05:27:06.292Z,97040.22
2022-12-15T05:29:27.224Z,97047.59
2022-12-15T05:31:52.648Z,97051.00
2022-12-15T05:34:04.531Z,97048.34
2022-12-15T05:36:32.497Z,97040.66
2022-12-15T05:38:38.189Z,97038.75
2022-12-15T05:40:41.359Z,97039.66
2022-12-15T05:42:44.427Z,97032.88
2022-12-15T05:44:53.704Z,97034.63
2022-12-15T05:46:57.138Z,97041.16
2022-12-15T05:49:03.972Z,97039.41
2022-12-15T05:51:08.187Z,97042.69
2022-12-15T05:53:13.962Z,97041.81
2022-12-15T05:55:17.944Z,97045.19
2022-12-15T05:57:21.042Z,97044.25
2022-12-15T05:59:24.158Z,97054.44
2022-12-15T06:01:28.064Z,97059.34
2022-12-15T06:03:31.766Z,97053.53
2022-12-15T06:05:36.567Z,97045.09
2022-12-15T06:07:39.692Z,97052.03
2022-12-15T06:09:43.603Z,97043.66
2022-12-15T06:11:46.986Z,97038.81
2022-12-15T06:13:50.645Z,97039.56
2022-12-15T06:15:58.302Z,97047.19
2022-12-15T06:18:01.644Z,97042.41
2022-12-15T06:20:05.342Z,97056.97
2022-12-15T06:22:11.185Z,97051.00
2022-12-15T06:24:14.258Z,97051.75
2022-12-15T06:26:20.495Z,97053.56
2022-12-15T06:28:25.090Z,97055.25
2022-12-15T06:30:28.248Z,97058.03
2022-12-15T06:32:31.421Z,97059.00
2022-12-15T06:34:34.594Z,97059.91
2022-12-15T06:36:37.985Z,97063.16
2022-12-15T06:38:43.654Z,97073.38
2022-12-15T06:40:46.833Z,97077.50
2022-12-15T06:42:50.012Z,97083.50
2022-12-15T06:44:53.112Z,97083.31
2022-12-15T06:46:56.280Z,97088.28
2022-12-15T06:49:00.345Z,97078.00
2022-12-15T06:51:05.410Z,97085.56
2022-12-15T06:53:08.628Z,97077.28
2022-12-15T06:55:14.246Z,97081.44
2022-12-15T06:57:17.423Z,97080.75
2022-12-15T06:59:20.711Z,97079.75
2022-12-15T07:01:24.952Z,97075.59
2022-12-15T07:03:28.508Z,97077.94
2022-12-15T07:05:32.019Z,97089.16
2022-12-15T07:07:35.261Z,97083.09
2022-12-15T07:09:38.420Z,97073.44
2022-12-15T07:11:51.327Z,97061.25
2022-12-15T07:13:54.951Z,97059.50
2022-12-15T07:16:00.644Z,97065.34
2022-12-15T07:18:04.559Z,97064.56
2022-12-15T07:20:08.870Z,97069.69
2022-12-15T07:22:12.284Z,97077.41
2022-12-15T07:24:15.549Z,97068.97
2022-12-15T07:26:18.898Z,97060.34
2022-12-15T07:28:25.969Z,97067.97
2022-12-15T07:30:33.599Z,97061.41
2022-12-15T07:32:40.199Z,97066.69
2022-12-15T07:34:43.503Z,97053.78
2022-12-15T07:36:52.086Z,97059.28
2022-12-15T07:39:00.913Z,97068.06
2022-12-15T07:41:05.690Z,97070.81
2022-12-15T07:43:09.120Z,97074.19
2022-12-15T07:45:14.254Z,97078.34
2022-12-15T07:47:17.474Z,97081.59
2022-12-15T07:49:21.665Z,97087.41
2022-12-15T07:51:24.862Z,97092.22
2022-12-15T07:53:29.080Z,97100.69
2022-12-15T07:55:57.606Z,97103.03
2022-12-15T07:57:55.979Z,97107.72
2022-12-15T07:59:59.336Z,97097.28
2022-12-15T08:02:04.623Z,97099.47
2022-12-15T08:04:08.214Z,97102.09
2022-12-15T08:06:13.446Z,97092.75
2022-12-15T08:08:18.404Z,97102.81
2022-12-15T08:10:21.633Z,97119.03
2022-12-15T08:12:24.910Z,97123.38
2022-12-15T08:14:28.790Z,97123.09
2022-12-15T08:16:34.614Z,97114.72
2022-12-15T08:18:40.041Z,97112.22
2022-12-15T08:20:43.372Z,97124.94
2022-12-15T08:22:46.798Z,97123.66
2022-12-15T08:24:50.204Z,97127.00
2022-12-15T08:26:53.622Z,97138.09
2022-12-15T08:29:11.898Z,97150.41
2022-12-15T08:31:22.488Z,97157.66
2022-12-15T08:33:25.920Z,97161.97
2022-12-15T08:35:55.295Z,97161.28
2022-12-15T08:37:53.877Z,97157.13
2022-12-15T08:39:57.255Z,97161.28
2022-12-15T08:42:03.193Z,97167.09
2022-12-15T08:44:06.565Z,97163.25
2022-12-15T08:46:10.059Z,97151.38
2022-12-15T08:48:13.326Z,97140.81
2022-12-15T08:50:17.219Z,97139.63
2022-12-15T08:52:21.863Z,97139.47
2022-12-15T08:54:25.080Z,97128.97
2022-12-15T08:56:30.336Z,97137.19
2022-12-15T08:58:33.884Z,97130.31
2022-12-15T09:00:37.047Z,97134.31
2022-12-15T09:02:40.486Z,97144.44
2022-12-15T09:04:45.325Z,97147.00
2022-12-15T09:06:50.803Z,97148.66
2022-12-15T09:08:57.632Z,97150.63
2022-12-15T09:11:01.364Z,97159.72
2022-12-15T09:13:04.583Z,97162.88
2022-12-15T09:15:08.700Z,97165.59
2022-12-15T09:17:12.835Z,97167.19
2022-12-15T09:19:16.156Z,97174.75
2022-12-15T09:21:22.432Z,97171.19
2022-12-15T09:23:25.529Z,97173.81
2022-12-15T09:25:30.240Z,97169.53
2022-12-15T09:27:35.027Z,97158.47
2022-12-15T09:29:38.268Z,97166.34
2022-12-15T09:31:44.697Z,97161.13
2022-12-15T09:33:48.175Z,97159.03
2022-12-15T09:35:51.736Z,97166.59
2022-12-15T09:37:55.004Z,97163.09
2022-12-15T09:39:58.205Z,97152.28
2022-12-15T09:42:02.882Z,97150.84
2022-12-15T09:44:10.991Z,97154.16
2022-12-15T09:46:22.143Z,97152.63
2022-12-15T09:48:26.271Z,97136.38
2022-12-15T09:50:36.057Z,97141.31
2022-12-15T09:52:50.736Z,97123.03
2022-12-15T09:54:54.782Z,97124.44
2022-12-15T09:57:04.498Z,97120.31
2022-12-15T09:59:20.626Z,97132.22
2022-12-15T10:01:29.269Z,97138.72
2022-12-15T10:03:42.271Z,97132.59
2022-12-15T10:06:15.451Z,97128.13
2022-12-15T10:08:20.736Z,97126.97
2022-12-15T10:10:27.199Z,97132.47
2022-12-15T10:12:34.382Z,97133.31
2022-12-15T10:14:41.109Z,97149.25
2022-12-15T10:16:52.816Z,97146.91
2022-12-15T10:19:09.216Z,97142.63
2022-12-15T10:21:14.767Z,97152.22
2022-12-15T10:23:19.243Z,97156.59
2022-12-15T10:28:04.787Z,97157.00
2022-12-15T10:30:11.617Z,97154.00
2022-12-15T10:32:18.851Z,97154.97
2022-12-15T10:34:27.430Z,97166.47
2022-12-15T10:36:30.783Z,97169.63
2022-12-15T10:38:50.864Z,97156.53
2022-12-15T10:41:02.417Z,97147.78
2022-12-15T10:43:14.525Z,97150.19
2022-12-15T10:45:36.765Z,97145.81
2022-12-15T10:47:40.065Z,97139.59
2022-12-15T10:49:43.393Z,97134.28
2022-12-15T10:51:50.722Z,97134.66
2022-12-15T10:53:55.250Z,97130.59
2022-12-15T10:56:01.460Z,97122.38
2022-12-15T10:58:21.597Z,97117.47
2022-12-15T11:00:29.948Z,97104.03
2022-12-15T11:02:36.692Z,97094.91
2022-12-15T11:04:40.549Z,97086.34
2022-12-15T11:06:44.097Z,97081.38
2022-12-15T11:08:49.678Z,97073.66
2022-12-15T11:11:45.097Z,97074.59
2022-12-15T11:14:11.410Z,97067.53
2022-12-15T11:16:19.950Z,97072.81
2022-12-15T11:18:29.048Z,97071.97
2022-12-15T11:20:36.076Z,97070.19
2022-12-15T11:22:43.424Z,97085.78
2022-12-15T11:25:06.355Z,97094.06
2022-12-15T11:27:22.375Z,97089.75
2022-12-15T11:29:30.103Z,97096.00
2022-12-15T11:31:38.420Z,97094.97
2022-12-15T11:33:41.582Z,97091.34
2022-12-15T11:35:54.915Z,97089.09
2022-12-15T11:38:01.902Z,97093.16
2022-12-15T11:40:34.810Z,97092.84
2022-12-15T11:42:53.713Z,97086.66
2022-12-15T11:45:04.498Z,97091.09
2022-12-15T11:47:14.529Z,97094.97
2022-12-15T11:49:45.422Z,97094.97
2022-12-15T11:51:53.168Z,97086.50
2022-12-15T11:54:06.783Z,97087.34
2022-12-15T11:56:18.196Z,97083.84
2022-12-15T11:58:37.768Z,97078.38
2022-12-15T12:00:44.625Z,97068.34
2022-12-15T12:02:59.778Z,97054.06
2022-12-15T12:05:22.464Z,97046.66
2022-12-15T12:07:34.603Z,97040.63
2022-12-15T12:09:48.592Z,97041.34
2022-12-15T12:11:55.484Z,97042.19
2022-12-15T12:14:26.390Z,97047.84
2022-12-15T12:16:37.708Z,97028.69
2022-12-15T12:18:43.689Z,97030.31
2022-12-15T12:20:51.508Z,97031.16
2022-12-15T12:23:03.164Z,97014.47
2022-12-15T12:25:12.261Z,97010.66
2022-12-15T12:27:23.725Z,96997.53
2022-12-15T12:29:31.155Z,96992.22
2022-12-15T12:31:42.005Z,96987.53
2022-12-15T12:33:48.600Z,96982.38
2022-12-15T12:35:55.169Z,96983.19
2022-12-15T12:38:04.134Z,96987.09
2022-12-15T12:40:17.640Z,96979.25
2022-12-15T12:42:26.112Z,96985.88
2022-12-15T12:44:33.410Z,96972.25
2022-12-15T12:46:42.375Z,96976.50
2022-12-15T12:49:14.151Z,96978.56
2022-12-15T12:51:25.076Z,96969.72
2022-12-15T12:53:34.042Z,96975.91
2022-12-15T12:55:40.664Z,96976.81
2022-12-15T12:57:44.668Z,96981.88
2022-12-15T12:59:51.244Z,96981.69
2022-12-15T13:01:56.253Z,96985.84
2022-12-15T13:04:13.435Z,96975.56
2022-12-15T13:06:43.818Z,96970.88
2022-12-15T13:08:51.678Z,96962.63
2022-12-15T13:10:56.169Z,96953.66
2022-12-15T13:13:00.030Z,96957.38
2022-12-15T13:15:07.707Z,96956.75
2022-12-15T13:17:27.197Z,96955.47
2022-12-15T13:20:04.273Z,96953.56
2022-12-15T13:22:24.534Z,96970.22
2022-12-15T13:24:33.305Z,96965.31
2022-12-15T13:26:36.512Z,96964.41
2022-12-15T13:28:45.898Z,96960.25
2022-12-15T13:31:27.779Z,96959.72
2022-12-15T13:33:31.616Z,96949.03
2022-12-15T13:35:35.186Z,96938.91
2022-12-15T13:37:46.725Z,96939.38
2022-12-15T13:39:57.618Z,96933.41
2022-12-15T13:42:35.000Z,96933.16
2022-12-15T13:44:41.405Z,96922.03
2022-12-15T13:46:46.866Z,96913.34
2022-12-15T13:48:54.527Z,96907.38
2022-12-15T13:51:03.775Z,96904.81
2022-12-15T13:53:30.841Z,96907.75
2022-12-15T13:55:38.820Z,96899.66
2022-12-15T13:57:50.015Z,96904.81
2022-12-15T13:59:54.530Z,96902.16
2022-12-15T14:01:57.944Z,96901.69
2022-12-15T14:04:08.074Z,96900.00
2022-12-15T14:06:15.297Z,96911.38
2022-12-15T14:08:19.972Z,96916.81
2022-12-15T14:10:26.672Z,96908.53
2022-12-15T14:12:34.790Z,96908.78
2022-12-15T14:14:45.557Z,96907.97
2022-12-15T14:16:59.306Z,96907.97
2022-12-15T14:19:14.621Z,96904.75
2022-12-15T14:21:23.027Z,96909.69
2022-12-15T14:23:28.945Z,96909.97
2022-12-15T14:25:32.746Z,96908.22
2022-12-15T14:27:37.530Z,96915.69
2022-12-15T14:29:42.057Z,96912.34
2022-12-15T14:31:46.371Z,96913.66
2022-12-15T14:33:54.425Z,96916.97
2022-12-15T14:35:59.383Z,96910.06
2022-12-15T14:38:07.508Z,96906.00
2022-12-15T14:40:15.908Z,96911.88
2022-12-15T14:42:20.986Z,96908.22
2022-12-15T14:44:38.093Z,96911.28
2022-12-15T14:46:47.086Z,96915.59
2022-12-15T14:48:56.825Z,96911.34
2022-12-15T14:51:01.778Z,96913.75
2022-12-15T14:53:07.732Z,96914.22
2022-12-15T14:55:31.966Z,96915.31
2022-12-15T14:57:42.094Z,96913.97
2022-12-15T14:59:49.848Z,96913.72
2022-12-15T15:02:00.522Z,96919.41
2022-12-15T15:03:03.980Z,97157.59
2022-12-15T15:04:05.570Z,96921.00
2022-12-15T15:06:18.169Z,96918.25
2022-12-15T15:08:28.519Z,96913.94
2022-12-15T15:10:32.229Z,96917.81
2022-12-15T15:12:43.648Z,96910.00
2022-12-15T15:14:55.739Z,96919.28
2022-12-15T15:17:05.069Z,96924.34
2022-12-15T15:19:08.511Z,96923.44
2022-12-15T15:21:25.047Z,96917.31
2022-12-15T15:23:28.213Z,96909.41
2022-12-15T15:25:41.328Z,96911.13
2022-12-15T15:27:44.755Z,96910.84
2022-12-15T15:29:50.234Z,96915.63
2022-12-15T15:31:54.333Z,96918.94
2022-12-15T15:33:58.956Z,96919.69
2022-12-15T15:36:04.373Z,96916.88
2022-12-15T15:38:23.140Z,96916.53
2022-12-15T15:40:26.667Z,96909.66
2022-12-15T15:42:32.650Z,96921.03
2022-12-15T15:44:36.202Z,96915.16
2022-12-15T15:46:46.613Z,96924.25
2022-12-15T15:48:52.086Z,96930.69
2022-12-15T15:50:55.922Z,96930.78
2022-12-15T15:53:03.135Z,96934.25
2022-12-15T15:55:07.416Z,96917.78
2022-12-15T15:57:14.493Z,96925.66
2022-12-15T15:59:21.047Z,96933.13
2022-12-15T16:08:48.894Z,96932.06
2022-12-15T16:10:52.618Z,96922.13
2022-12-15T16:12:58.022Z,96923.28
2022-12-15T16:15:01.086Z,96914.66
2022-12-15T16:17:04.822Z,96912.72
2022-12-15T16:19:08.029Z,96912.31
2022-12-15T16:21:11.788Z,96910.06
2022-12-15T16:23:16.562Z,96909.97
2022-12-15T16:25:25.675Z,96911.81
2022-12-15T16:27:28.933Z,96904.22
2022-12-15T16:29:32.089Z,96906.78
2022-12-15T16:31:41.332Z,96894.75
2022-12-15T16:33:46.763Z,96896.94
2022-12-15T16:35:50.945Z,96898.84
2022-12-15T16:37:54.144Z,96898.00
2022-12-15T16:39:57.308Z,96897.00
2022-12-15T16:42:01.981Z,96889.13
2022-12-15T16:44:05.926Z,96893.72
2022-12-15T16:46:12.638Z,96899.19
2022-12-15T16:48:16.288Z,96890.53
2022-12-15T16:50:21.096Z,96883.75
2022-12-15T16:52:24.419Z,96895.44
2022-12-15T16:54:28.585Z,96902.97
2022-12-15T16:56:31.799Z,96909.13
2022-12-15T16:58:37.166Z,96904.50
2022-12-15T17:00:40.366Z,96898.34
2022-12-15T17:02:44.535Z,96897.84
2022-12-15T17:04:47.852Z,96890.03
2022-12-15T17:06:52.571Z,96896.84
2022-12-15T17:08:56.418Z,96900.31
2022-12-15T17:10:59.942Z,96894.94
2022-12-15T17:13:06.004Z,96884.06
2022-12-15T17:15:17.695Z,96884.25
2022-12-15T17:17:21.276Z,96886.47
2022-12-15T17:19:27.303Z,96874.28
2022-12-15T17:21:31.863Z,96867.66
2022-12-15T17:23:36.357Z,96858.19
2022-12-15T17:28:05.587Z,96864.63
2022-12-15T17:30:15.133Z,96861.25
2022-12-15T17:32:18.449Z,96865.13
2022-12-15T17:34:27.458Z,96856.00
2022-12-15T17:36:30.595Z,96858.59
2022-12-15T17:38:33.852Z,96860.16
2022-12-15T17:40:37.108Z,96857.75
2022-12-15T17:42:40.455Z,96851.03
2022-12-15T17:44:46.727Z,96849.19
2022-12-15T17:46:51.940Z,96845.06
2022-12-15T17:49:00.941Z,96845.25
2022-12-15T17:51:04.186Z,96844.59
2022-12-15T17:53:07.675Z,96837.78
2022-12-15T17:55:23.635Z,96842.28
2022-12-15T17:57:27.057Z,96841.03
2022-12-15T17:59:32.260Z,96842.03
2022-12-15T18:01:35.514Z,96838.16
2022-12-15T18:03:40.391Z,96843.69
2022-12-15T18:05:43.839Z,96834.81
2022-12-15T18:07:50.049Z,96835.09
2022-12-15T18:09:53.573Z,96848.78
2022-12-15T18:11:56.865Z,96855.06
2022-12-15T18:14:00.427Z,96846.28
2022-12-15T18:16:03.801Z,96844.13
2022-12-15T18:18:09.590Z,96845.72
2022-12-15T18:20:14.425Z,96843.38
2022-12-15T18:22:21.105Z,96846.28
2022-12-15T18:24:27.012Z,96847.94
2022-12-15T18:26:31.544Z,96854.47
2022-12-15T18:28:36.282Z,96843.28
2022-12-15T18:30:39.559Z,96853.66
2022-12-15T18:32:42.847Z,96843.78
2022-12-15T18:34:46.738Z,96835.50
2022-12-15T18:36:51.589Z,96836.84
2022-12-15T18:38:54.930Z,96838.91
2022-12-15T18:40:59.813Z,96826.88
2022-12-15T18:43:03.029Z,96825.72
2022-12-15T18:45:16.718Z,96829.59
2022-12-15T18:47:21.332Z,96824.72
2022-12-15T18:49:25.073Z,96825.56
2022-12-15T18:51:28.999Z,96826.38
2022-12-15T18:53:35.656Z,96823.41
2022-12-15T18:55:39.017Z,96831.78
2022-12-15T18:57:42.558Z,96834.25
2022-12-15T18:59:45.727Z,96823.06
2022-12-15T19:01:50.028Z,96817.69
2022-12-15T19:03:53.442Z,96816.50
2022-12-15T19:05:59.962Z,96815.75
2022-12-15T19:08:10.027Z,96819.75
2022-12-15T19:10:16.118Z,96814.59
2022-12-15T19:12:19.664Z,96805.34
2022-12-15T19:14:36.885Z,96808.72
2022-12-15T19:16:57.743Z,96800.13
2022-12-15T19:19:18.596Z,96786.88
2022-12-15T19:21:41.613Z,96784.66
2022-12-15T19:23:44.914Z,96796.47
2022-12-15T19:25:50.706Z,96785.81
2022-12-15T19:27:58.658Z,96775.38
2022-12-15T19:30:02.370Z,96771.38
2022-12-15T19:32:05.921Z,96771.06
2022-12-15T19:34:09.301Z,96771.19
2022-12-15T19:36:15.435Z,96759.97
2022-12-15T19:38:33.267Z,96759.88
2022-12-15T19:40:38.770Z,96758.88
2022-12-15T19:42:44.434Z,96750.50
2022-12-15T19:44:48.531Z,96761.44
2022-12-15T19:46:52.404Z,96764.25
2022-12-15T19:48:55.631Z,96759.69
2022-12-15T19:50:58.846Z,96755.44
2022-12-15T19:53:03.462Z,96757.03
2022-12-15T19:55:08.613Z,96757.38
2022-12-15T19:57:13.743Z,96760.91
2022-12-15T19:59:41.385Z,96770.38
2022-12-15T20:01:44.829Z,96775.28
2022-12-15T20:03:49.899Z,96776.03
2022-12-15T20:05:54.192Z,96768.41
2022-12-15T20:07:57.442Z,96769.97
2022-12-15T20:10:00.809Z,96770.09
2022-12-15T20:12:04.003Z,96776.06
2022-12-15T20:14:11.433Z,96786.81
2022-12-15T20:16:18.847Z,96777.09
2022-12-15T20:18:22.170Z,96786.16
2022-12-15T20:20:27.375Z,96776.03
2022-12-15T20:22:30.586Z,96774.03
2022-12-15T20:24:34.348Z,96776.34
2022-12-15T20:26:39.488Z,96781.16
2022-12-15T20:28:43.152Z,96786.31
2022-12-15T20:30:46.995Z,96786.78
2022-12-15T20:32:51.647Z,96790.94
2022-12-15T20:34:54.868Z,96790.78
2022-12-15T20:36:58.188Z,96789.19
2022-12-15T20:39:01.451Z,96789.69
2022-12-15T20:41:04.799Z,96805.44
2022-12-15T20:43:13.230Z,96799.91
2022-12-15T20:45:17.181Z,96801.44
2022-12-15T20:47:22.250Z,96796.22
2022-12-15T20:49:32.061Z,96798.44
2022-12-15T20:51:35.370Z,96800.50
2022-12-15T20:53:39.161Z,96802.19
2022-12-15T20:55:42.395Z,96807.56
2022-12-15T20:57:45.689Z,96799.88
2022-12-15T20:59:48.983Z,96803.06
2022-12-15T21:01:52.630Z,96808.41
2022-12-15T21:03:59.048Z,96821.66
2022-12-15T21:06:03.776Z,96810.81
2022-12-15T21:08:15.665Z,96808.09
2022-12-15T21:10:20.766Z,96811.88
2022-12-15T21:12:26.528Z,96808.22
2022-12-15T21:14:29.791Z,96798.59
2022-12-15T21:16:33.937Z,96804.56
2022-12-15T21:19:18.608Z,96806.22
2022-12-15T21:21:03.017Z,96803.66
2022-12-15T21:23:06.404Z,96795.03
2022-12-15T21:25:18.448Z,96793.53
2022-12-15T21:27:22.099Z,96795.53
2022-12-15T21:29:26.975Z,96784.91
2022-12-15T21:31:30.244Z,96778.97
2022-12-15T21:33:33.613Z,96770.41
2022-12-15T21:35:37.566Z,96768.41
2022-12-15T21:37:43.282Z,96768.31
2022-12-15T21:39:46.468Z,96759.63
2022-12-15T21:41:49.851Z,96767.91
2022-12-15T21:43:54.977Z,96761.97
2022-12-15T21:45:58.641Z,96754.72
2022-12-15T21:48:19.095Z,96747.69
2022-12-15T21:50:22.433Z,96746.81
2022-12-15T21:52:26.981Z,96764.19
2022-12-15T21:54:34.039Z,96767.41
2022-12-15T21:56:37.193Z,96766.41
2022-12-15T21:58:40.377Z,96771.28
2022-12-15T22:00:45.726Z,96776.44
2022-12-15T22:02:50.761Z,96775.34
2022-12-15T22:04:55.067Z,96776.34
2022-12-15T22:06:58.565Z,96762.34
2022-12-15T22:09:01.705Z,96767.00
2022-12-15T22:11:17.834Z,96780.03
2022-12-15T22:13:22.731Z,96782.25
2022-12-15T22:15:26.350Z,96784.75
2022-12-15T22:17:29.731Z,96785.47
2022-12-15T22:19:32.977Z,96787.69
2022-12-15T22:21:36.173Z,96789.19
2022-12-15T22:23:39.330Z,96789.94
2022-12-15T22:25:42.851Z,96795.91
2022-12-15T22:27:47.585Z,96788.84
2022-12-15T22:29:51.044Z,96793.81
2022-12-15T22:31:55.016Z,96786.00
2022-12-15T22:33:58.356Z,96796.94
2022-12-15T22:36:01.564Z,96800.25
2022-12-15T22:38:04.697Z,96791.25
2022-12-15T22:40:08.962Z,96796.47
2022-12-15T22:42:16.060Z,96795.56
2022-12-15T22:44:23.186Z,96792.16
2022-12-15T22:46:26.388Z,96799.78
2022-12-15T22:48:34.439Z,96798.31
2022-12-15T22:50:37.703Z,96800.81
2022-12-15T22:52:40.842Z,96805.75
2022-12-15T22:54:45.907Z,96813.38
2022-12-15T22:56:51.995Z,96811.38
2022-12-15T22:58:58.590Z,96804.56
2022-12-15T23:01:03.532Z,96805.22
2022-12-15T23:03:09.166Z,96802.72
2022-12-15T23:05:15.182Z,96798.78
2022-12-15T23:07:19.860Z,96809.06
2022-12-15T23:09:23.033Z,96806.41
2022-12-15T23:11:37.093Z,96794.00
2022-12-15T23:13:40.255Z,96797.63
2022-12-15T23:16:01.561Z,96803.22
2022-12-15T23:18:06.375Z,96806.38
2022-12-15T23:20:10.817Z,96801.66
2022-12-15T23:22:14.649Z,96805.59
2022-12-15T23:24:17.901Z,96803.38
2022-12-15T23:26:23.309Z,96804.34
2022-12-15T23:28:27.698Z,96798.81
2022-12-15T23:30:31.171Z,96788.06
2022-12-15T23:32:34.538Z,96801.88
2022-12-15T23:34:39.250Z,96796.56
2022-12-15T23:36:42.532Z,96797.06
2022-12-15T23:38:46.361Z,96793.50
2022-12-15T23:40:52.692Z,96800.22
2022-12-15T23:42:56.215Z,96802.38
2022-12-15T23:44:59.494Z,96798.97
2022-12-15T23:47:02.756Z,96799.91
2022-12-15T23:49:06.711Z,96794.66
2022-12-15T23:51:16.204Z,96804.25
2022-12-15T23:53:19.385Z,96805.84
2022-12-15T23:55:22.544Z,96806.50
2022-12-15T23:57:25.791Z,96804.69
2022-12-15T23:59:29.191Z,96796.88
